D/T METAR WX W/DIR W/SPE G/SPE TEMP DEWP
6/06/20 11:50 EGKK 061050Z 24018KT 9999 SCT037 13/04 Q0999 WSW (240°) 20.7mph 13°C 4°C
6/06/20 11:20 EGKK 061020Z 26018KT 9999 BKN037 13/04 Q0999 W (260°) 20.7mph 13°C 4°C
6/06/20 10:50 EGKK 060950Z 26019KT 9999 BKN037 13/03 Q0999 W (260°) 21.9mph 13°C 3°C
6/06/20 09:50 EGKK 060850Z 24014KT 9999 SCT038 12/03 Q0999 WSW (240°) 16.1mph 12°C 3°C
6/06/20 09:20 EGKK 060820Z 25017G29KT 9999 FEW039 12/02 Q0999 WSW (250°) 19.6mph 33.4mph 12°C 2°C
6/06/20 08:50 EGKK 060750Z 25016KT 9999 FEW046 11/02 Q0999 WSW (250°) 18.4mph 11°C 2°C
6/06/20 07:50 EGKK 060650Z 24014KT CAVOK 10/03 Q0999 WSW (240°) 16.1mph 10°C 3°C
6/06/20 07:20 EGKK 060620Z 25012KT CAVOK 09/04 Q0999 WSW (250°) 13.8mph 9°C 4°C
6/06/20 06:50 EGKK 060550Z 25010KT CAVOK 08/04 Q0999 WSW (250°) 11.5mph 8°C 4°C
6/06/20 06:20 EGKK 060520Z 24009KT CAVOK 08/04 Q0999 WSW (240°) 10.4mph 8°C 4°C
6/06/20 05:50 EGKK 060450Z 24009KT CAVOK 07/04 Q0999 WSW (240°) 10.4mph 7°C 4°C
6/06/20 05:20 EGKK 060420Z 25010KT CAVOK 07/04 Q0999 WSW (250°) 11.5mph 7°C 4°C
6/06/20 04:50 EGKK 060350Z 26011KT CAVOK 07/04 Q0999 W (260°) 12.7mph 7°C 4°C
6/06/20 04:20 EGKK 060320Z 26010KT CAVOK 07/04 Q0999 W (260°) 11.5mph 7°C 4°C
6/06/20 03:50 EGKK 060250Z 27012KT CAVOK 08/04 Q0999 W (270°) 13.8mph 8°C 4°C
6/06/20 03:20 EGKK 060220Z 27010KT CAVOK 08/04 Q0999 W (270°) 11.5mph 8°C 4°C
6/06/20 02:50 EGKK 060150Z AUTO 27009KT 9999 NCD 08/04 Q0999 W (270°) 10.4mph 8°C 4°C
6/06/20 02:20 EGKK 060120Z AUTO 27010KT 9999 NCD 08/04 Q0999 W (270°) 11.5mph 8°C 4°C
6/06/20 01:50 EGKK 060050Z AUTO 26008KT 9999 NCD 08/04 Q0999 W (260°) 9.2mph 8°C 4°C
6/06/20 01:20 EGKK 060020Z 25008KT CAVOK 08/04 Q0999 WSW (250°) 9.2mph 8°C 4°C
6/06/20 00:50 EGKK 052350Z 27010KT CAVOK 10/04 Q0999 W (270°) 11.5mph 10°C 4°C
6/06/20 00:20 EGKK 052320Z 27010KT CAVOK 11/04 Q0999 W (270°) 11.5mph 11°C 4°C
5/06/20 23:50 EGKK 052250Z 27011KT CAVOK 11/03 Q0998 W (270°) 12.7mph 11°C 3°C
5/06/20 23:20 EGKK 052220Z 26009KT CAVOK 11/03 Q0998 W (260°) 10.4mph 11°C 3°C
5/06/20 22:50 EGKK 052150Z 26007KT CAVOK 11/03 Q0998 W (260°) 8.1mph 11°C 3°C
5/06/20 22:20 EGKK 052120Z 25007KT CAVOK 11/03 Q0998 WSW (250°) 8.1mph 11°C 3°C
5/06/20 21:50 EGKK 052050Z 24005KT CAVOK 12/03 Q0998 WSW (240°) 5.8mph 12°C 3°C
5/06/20 21:20 EGKK 052020Z 24004KT CAVOK 12/03 Q0998 WSW (240°) 4.6mph 12°C 3°C
5/06/20 20:50 EGKK 051950Z 28005KT CAVOK 12/02 Q0998 W (280°) 5.8mph 12°C 2°C
5/06/20 20:20 EGKK 051920Z 28008KT CAVOK 13/03 Q0998 W (280°) 9.2mph 13°C 3°C
5/06/20 19:50 EGKK 051850Z 30012KT CAVOK 14/03 Q0998 WNW (300°) 13.8mph 14°C 3°C
5/06/20 19:20 EGKK 051820Z 28007KT 260V330 9999 FEW015 14/06 Q0998 W (280°) 8.1mph 14°C 6°C
5/06/20 18:50 EGKK 051750Z 32009G22KT 9999 -SHRA FEW012 FEW032TCU 14/04 Q0997 -SHRA NW (320°) 10.4mph 25.3mph 14°C 4°C
5/06/20 17:50 EGKK 051650Z 28014KT CAVOK 16/01 Q0997 W (280°) 16.1mph 16°C 1°C
5/06/20 17:20 EGKK 051620Z 30011KT 260V340 CAVOK 16/02 Q0997 WNW (300°) 12.7mph 16°C 2°C
5/06/20 16:50 EGKK 051550Z 31013KT 9999 VCSH NSC 17/02 Q0997 VCSH NW (310°) 15.0mph 17°C 2°C
5/06/20 16:20 EGKK 051520Z 29009KT CAVOK 16/02 Q0997 WNW (290°) 10.4mph 16°C 2°C
5/06/20 15:50 EGKK 051450Z 34011KT CAVOK 16/03 Q0997 NNW (340°) 12.7mph 16°C 3°C
5/06/20 15:20 EGKK 051420Z 30014KT CAVOK 16/00 Q0997 WNW (300°) 16.1mph 16°C 0°C
5/06/20 14:20 EGKK 051320Z 30014KT 9999 VCSH FEW028 16/02 Q0997 VCSH WNW (300°) 16.1mph 16°C 2°C
5/06/20 13:50 EGKK 051250Z 29013KT 9999 -SHRA FEW047 15/02 Q0997 -SHRA WNW (290°) 15.0mph 15°C 2°C
5/06/20 12:50 EGKK 051150Z 33012KT 290V360 9999 FEW045 15/04 Q0996 NNW (330°) 13.8mph 15°C 4°C
5/06/20 12:20 EGKK 051120Z 31015KT 9999 FEW043 15/03 Q0996 NW (310°) 17.3mph 15°C 3°C
5/06/20 11:50 EGKK 051050Z 30017KT 9999 SCT043 15/03 Q0996 WNW (300°) 19.6mph 15°C 3°C
5/06/20 11:20 EGKK 051020Z 30018KT 9999 SCT043 14/03 Q0996 WNW (300°) 20.7mph 14°C 3°C
5/06/20 10:50 EGKK 050950Z 29018KT 9999 SCT041 SCT049 14/03 Q0996 WNW (290°) 20.7mph 14°C 3°C
5/06/20 10:20 EGKK 050920Z 29017KT 9999 SCT039 SCT047 14/04 Q0996 WNW (290°) 19.6mph 14°C 4°C
5/06/20 09:50 EGKK 050850Z 29016KT 9999 FEW039 14/04 Q0996 WNW (290°) 18.4mph 14°C 4°C
5/06/20 09:20 EGKK 050820Z 29017KT 9999 SCT039 SCT046 13/03 Q0996 WNW (290°) 19.6mph 13°C 3°C
5/06/20 08:50 EGKK 050750Z 29018G28KT 9999 FEW036 SCT043 13/03 Q0996 WNW (290°) 20.7mph 32.2mph 13°C 3°C
5/06/20 08:20 EGKK 050720Z 30017KT 9999 FEW036 SCT046 13/04 Q0995 WNW (300°) 19.6mph 13°C 4°C
5/06/20 07:50 EGKK 050650Z 29016KT CAVOK 13/04 Q0995 WNW (290°) 18.4mph 13°C 4°C
5/06/20 07:20 EGKK 050620Z 29012KT 9999 FEW048 13/06 Q0995 WNW (290°) 13.8mph 13°C 6°C
5/06/20 06:50 EGKK 050550Z 29014KT 9999 FEW031 SCT048 12/07 Q0996 WNW (290°) 16.1mph 12°C 7°C
5/06/20 06:20 EGKK 050520Z 26010KT 9999 SCT014 11/11 Q0996 W (260°) 11.5mph 11°C 11°C
5/06/20 05:50 EGKK 050450Z 25008KT 9999 SCT011 11/10 Q0996 WSW (250°) 9.2mph 11°C 10°C
5/06/20 05:20 EGKK 050420Z 24007KT 8000 SCT011 BKN030 11/10 Q0996 WSW (240°) 8.1mph 11°C 10°C
5/06/20 04:50 EGKK 050350Z 24007KT 8000 FEW017 SCT028 11/10 Q0996 WSW (240°) 8.1mph 11°C 10°C
5/06/20 04:20 EGKK 050320Z 23006KT 9999 FEW044 11/10 Q0996 SW (230°) 6.9mph 11°C 10°C
5/06/20 03:50 EGKK 050250Z 22007KT CAVOK 11/09 Q0996 SW (220°) 8.1mph 11°C 9°C
5/06/20 03:20 EGKK 050220Z 22007KT 9999 FEW042 11/10 Q0997 SW (220°) 8.1mph 11°C 10°C
5/06/20 02:50 EGKK 050150Z AUTO 22007KT 9999 SCT042/// 11/10 Q0998 SW (220°) 8.1mph 11°C 10°C
5/06/20 01:50 EGKK 050050Z AUTO 23008KT 9999 NCD 11/09 Q0998 SW (230°) 9.2mph 11°C 9°C
5/06/20 01:20 EGKK 050020Z 22006KT CAVOK 11/09 Q0999 SW (220°) 6.9mph 11°C 9°C
5/06/20 00:50 EGKK 042350Z 22007KT 9999 FEW044 11/09 Q0999 SW (220°) 8.1mph 11°C 9°C
5/06/20 00:20 EGKK 042320Z 22005KT 9999 FEW030 SCT043 11/09 Q0999 SW (220°) 5.8mph 11°C 9°C
4/06/20 23:50 EGKK 042250Z 23006KT 9999 FEW034 BKN042 11/10 Q1000 SW (230°) 6.9mph 11°C 10°C
4/06/20 23:20 EGKK 042220Z 22004KT 9999 FEW029 SCT034 11/10 Q1000 SW (220°) 4.6mph 11°C 10°C
4/06/20 22:50 EGKK 042150Z 24006KT 210V270 9999 FEW028 BKN048 11/09 Q1001 WSW (240°) 6.9mph 11°C 9°C
4/06/20 21:50 EGKK 042050Z 28006KT 9999 FEW025 SCT030 11/09 Q1001 W (280°) 6.9mph 11°C 9°C
4/06/20 21:20 EGKK 042020Z 32008KT 9999 VCSH SCT042 12/08 Q1001 VCSH NW (320°) 9.2mph 12°C 8°C
4/06/20 20:50 EGKK 041950Z 25005KT 9999 VCSH SCT040 12/08 Q1001 VCSH WSW (250°) 5.8mph 12°C 8°C
4/06/20 20:20 EGKK 041920Z 21002KT 9999 SCT041 12/08 Q1001 SSW (210°) 2.3mph 12°C 8°C
4/06/20 19:50 EGKK 041850Z VRB01KT 9999 SCT040 12/08 Q1001 N (0°) 1.2mph 12°C 8°C
4/06/20 18:50 EGKK 041750Z 33005KT 9999 BKN037 13/06 Q1001 NNW (330°) 5.8mph 13°C 6°C
4/06/20 18:20 EGKK 041720Z 31009KT 9999 FEW037 SCT042 14/05 Q1001 NW (310°) 10.4mph 14°C 5°C
4/06/20 17:20 EGKK 041620Z 30009KT 9999 SCT048 15/05 Q1002 WNW (300°) 10.4mph 15°C 5°C
4/06/20 16:50 EGKK 041550Z 30011KT 9999 SCT047 15/04 Q1002 WNW (300°) 12.7mph 15°C 4°C
4/06/20 16:20 EGKK 041520Z 29010KT CAVOK 16/04 Q1002 WNW (290°) 11.5mph 16°C 4°C
4/06/20 15:50 EGKK 041450Z 32011KT CAVOK 15/04 Q1002 NW (320°) 12.7mph 15°C 4°C
4/06/20 15:20 EGKK 041420Z 33013KT 9999 FEW048 15/04 Q1002 NNW (330°) 15.0mph 15°C 4°C
4/06/20 14:50 EGKK 041350Z 32013KT 9999 SCT048 15/03 Q1002 NW (320°) 15.0mph 15°C 3°C
4/06/20 13:50 EGKK 041250Z 35009KT 320V030 9999 FEW046 16/03 Q1002 N (350°) 10.4mph 16°C 3°C
4/06/20 13:20 EGKK 041220Z 36010KT 300V040 9999 FEW049 15/03 Q1003 N (360°) 11.5mph 15°C 3°C
4/06/20 12:50 EGKK 041150Z 33010KT 9999 FEW042 14/04 Q1003 NNW (330°) 11.5mph 14°C 4°C
4/06/20 11:50 EGKK 041050Z 34009KT 9999 FEW034 14/06 Q1003 NNW (340°) 10.4mph 14°C 6°C
4/06/20 11:20 EGKK 041020Z 32009KT 9999 FEW024 BKN039 13/07 Q1003 NW (320°) 10.4mph 13°C 7°C
4/06/20 10:50 EGKK 040950Z 32011KT 9999 SCT024 13/07 Q1003 NW (320°) 12.7mph 13°C 7°C
4/06/20 10:20 EGKK 040920Z 33010KT 9999 SCT021 BKN043 13/08 Q1003 NNW (330°) 11.5mph 13°C 8°C
4/06/20 09:50 EGKK 040850Z 34009KT 9999 SCT021 BKN034 13/08 Q1003 NNW (340°) 10.4mph 13°C 8°C
4/06/20 08:50 EGKK 040750Z 35008KT 9999 BKN016 11/09 Q1004 N (350°) 9.2mph 11°C 9°C
4/06/20 08:20 EGKK 040720Z 35009KT 9999 BKN014 11/09 Q1004 N (350°) 10.4mph 11°C 9°C
4/06/20 07:50 EGKK 040650Z 33008KT 9999 BKN014 11/09 Q1004 NNW (330°) 9.2mph 11°C 9°C
4/06/20 06:50 EGKK 040550Z 33007KT 9999 BKN013 10/09 Q1004 NNW (330°) 8.1mph 10°C 9°C
4/06/20 06:20 EGKK 040520Z 35009KT 9999 BKN011 10/09 Q1004 N (350°) 10.4mph 10°C 9°C
4/06/20 05:50 EGKK 040450Z 34008KT 9999 BKN010 10/09 Q1004 NNW (340°) 9.2mph 10°C 9°C